sensor_id;sensor_type;location;lat;lon;timestamp;P1;durP1;ratioP1;P2;durP2;ratioP2
12177;SDS011;6152;48.728;9.256;2024-03-17T00:02:16;11.98;;;9.02;;
12177;SDS011;6152;48.728;9.256;2024-03-17T00:04:45;13.93;;;10.00;;
12177;SDS011;6152;48.728;9.256;2024-03-17T00:07:12;12.63;;;10.05;;
12177;SDS011;6152;48.728;9.256;2024-03-17T00:09:38;15.35;;;10.32;;
12177;SDS011;6152;48.728;9.256;2024-03-17T00:12:05;12.18;;;9.27;;
12177;SDS011;6152;48.728;9.256;2024-03-17T00:14:36;13.45;;;9.45;;
12177;SDS011;6152;48.728;9.256;2024-03-17T00:17:04;10.80;;;8.57;;
12177;SDS011;6152;48.728;9.256;2024-03-17T00:19:35;13.18;;;9.50;;
12177;SDS011;6152;48.728;9.256;2024-03-17T00:22:01;11.07;;;9.43;;
12177;SDS011;6152;48.728;9.256;2024-03-17T00:24:28;11.00;;;9.18;;
12177;SDS011;6152;48.728;9.256;2024-03-17T00:26:59;12.45;;;10.13;;
12177;SDS011;6152;48.728;9.256;2024-03-17T00:29:26;13.60;;;9.25;;
12177;SDS011;6152;48.728;9.256;2024-03-17T00:31:53;13.27;;;10.05;;
12177;SDS011;6152;48.728;9.256;2024-03-17T00:34:20;13.02;;;10.13;;
12177;SDS011;6152;48.728;9.256;2024-03-17T00:36:46;16.02;;;10.18;;
12177;SDS011;6152;48.728;9.256;2024-03-17T00:39:12;11.27;;;9.60;;
12177;SDS011;6152;48.728;9.256;2024-03-17T00:41:39;13.52;;;9.98;;
12177;SDS011;6152;48.728;9.256;2024-03-17T00:44:05;12.15;;;9.20;;
12177;SDS011;6152;48.728;9.256;2024-03-17T00:46:32;12.30;;;9.82;;
12177;SDS011;6152;48.728;9.256;2024-03-17T00:48:58;12.05;;;8.45;;
12177;SDS011;6152;48.728;9.256;2024-03-17T00:51:27;11.63;;;8.85;;
12177;SDS011;6152;48.728;9.256;2024-03-17T00:53:53;12.63;;;8.95;;
12177;SDS011;6152;48.728;9.256;2024-03-17T00:56:21;11.13;;;8.80;;
12177;SDS011;6152;48.728;9.256;2024-03-17T00:58:47;11.25;;;8.75;;
12177;SDS011;6152;48.728;9.256;2024-03-17T01:01:16;14.52;;;9.82;;
12177;SDS011;6152;48.728;9.256;2024-03-17T01:03:44;16.25;;;10.55;;
12177;SDS011;6152;48.728;9.256;2024-03-17T01:06:10;13.60;;;9.93;;
12177;SDS011;6152;48.728;9.256;2024-03-17T01:08:37;11.77;;;9.68;;
12177;SDS011;6152;48.728;9.256;2024-03-17T01:11:03;12.88;;;9.60;;
12177;SDS011;6152;48.728;9.256;2024-03-17T01:13:33;12.40;;;9.18;;
12177;SDS011;6152;48.728;9.256;2024-03-17T01:16:00;14.68;;;9.65;;
12177;SDS011;6152;48.728;9.256;2024-03-17T01:18:26;12.90;;;9.98;;
12177;SDS011;6152;48.728;9.256;2024-03-17T01:20:52;13.32;;;9.57;;
12177;SDS011;6152;48.728;9.256;2024-03-17T01:23:18;14.90;;;10.10;;
12177;SDS011;6152;48.728;9.256;2024-03-17T01:25:44;12.50;;;9.60;;
12177;SDS011;6152;48.728;9.256;2024-03-17T01:28:10;10.35;;;9.02;;
12177;SDS011;6152;48.728;9.256;2024-03-17T01:30:37;14.45;;;10.45;;
12177;SDS011;6152;48.728;9.256;2024-03-17T01:33:04;14.10;;;10.38;;
12177;SDS011;6152;48.728;9.256;2024-03-17T01:35:31;12.77;;;9.77;;
12177;SDS011;6152;48.728;9.256;2024-03-17T01:37:57;13.23;;;9.75;;
12177;SDS011;6152;48.728;9.256;2024-03-17T01:40:23;12.45;;;10.45;;
12177;SDS011;6152;48.728;9.256;2024-03-17T01:42:49;13.57;;;10.82;;
12177;SDS011;6152;48.728;9.256;2024-03-17T01:45:20;14.07;;;10.93;;
12177;SDS011;6152;48.728;9.256;2024-03-17T01:47:54;16.52;;;11.02;;
12177;SDS011;6152;48.728;9.256;2024-03-17T01:50:25;13.23;;;10.30;;
12177;SDS011;6152;48.728;9.256;2024-03-17T01:52:56;13.65;;;10.57;;
12177;SDS011;6152;48.728;9.256;2024-03-17T01:55:24;13.90;;;11.20;;
12177;SDS011;6152;48.728;9.256;2024-03-17T01:57:52;14.57;;;11.60;;
12177;SDS011;6152;48.728;9.256;2024-03-17T02:00:19;14.70;;;11.45;;
12177;SDS011;6152;48.728;9.256;2024-03-17T02:02:45;15.25;;;11.90;;
12177;SDS011;6152;48.728;9.256;2024-03-17T02:05:11;16.98;;;11.15;;
12177;SDS011;6152;48.728;9.256;2024-03-17T02:07:38;14.68;;;11.65;;
12177;SDS011;6152;48.728;9.256;2024-03-17T02:10:05;14.07;;;11.27;;
12177;SDS011;6152;48.728;9.256;2024-03-17T02:12:33;14.95;;;11.20;;
12177;SDS011;6152;48.728;9.256;2024-03-17T02:15:00;15.02;;;11.65;;
12177;SDS011;6152;48.728;9.256;2024-03-17T02:17:30;15.93;;;12.02;;
12177;SDS011;6152;48.728;9.256;2024-03-17T02:19:59;16.67;;;12.35;;
12177;SDS011;6152;48.728;9.256;2024-03-17T02:22:26;16.25;;;12.75;;
12177;SDS011;6152;48.728;9.256;2024-03-17T02:24:55;14.40;;;11.73;;
12177;SDS011;6152;48.728;9.256;2024-03-17T02:27:21;16.08;;;12.65;;
12177;SDS011;6152;48.728;9.256;2024-03-17T02:29:47;16.33;;;12.40;;
12177;SDS011;6152;48.728;9.256;2024-03-17T02:32:13;19.50;;;15.27;;
12177;SDS011;6152;48.728;9.256;2024-03-17T02:34:39;21.48;;;15.48;;
12177;SDS011;6152;48.728;9.256;2024-03-17T02:37:06;17.70;;;14.02;;
12177;SDS011;6152;48.728;9.256;2024-03-17T02:39:35;15.05;;;12.02;;
12177;SDS011;6152;48.728;9.256;2024-03-17T02:42:05;17.95;;;13.40;;
12177;SDS011;6152;48.728;9.256;2024-03-17T02:44:34;16.63;;;13.40;;
12177;SDS011;6152;48.728;9.256;2024-03-17T02:47:02;16.67;;;12.15;;
12177;SDS011;6152;48.728;9.256;2024-03-17T02:49:30;15.80;;;12.20;;
12177;SDS011;6152;48.728;9.256;2024-03-17T02:52:02;14.90;;;11.77;;
12177;SDS011;6152;48.728;9.256;2024-03-17T02:54:29;16.05;;;11.90;;
12177;SDS011;6152;48.728;9.256;2024-03-17T02:56:56;15.05;;;12.23;;
12177;SDS011;6152;48.728;9.256;2024-03-17T02:59:22;18.60;;;12.82;;
12177;SDS011;6152;48.728;9.256;2024-03-17T03:01:48;17.13;;;11.63;;
12177;SDS011;6152;48.728;9.256;2024-03-17T03:04:15;16.67;;;11.77;;
12177;SDS011;6152;48.728;9.256;2024-03-17T03:06:41;15.38;;;12.25;;
12177;SDS011;6152;48.728;9.256;2024-03-17T03:09:08;15.15;;;11.70;;
12177;SDS011;6152;48.728;9.256;2024-03-17T03:11:45;16.50;;;11.95;;
12177;SDS011;6152;48.728;9.256;2024-03-17T03:14:12;16.65;;;11.68;;
12177;SDS011;6152;48.728;9.256;2024-03-17T03:16:38;18.17;;;11.93;;
12177;SDS011;6152;48.728;9.256;2024-03-17T03:19:04;14.70;;;11.93;;
12177;SDS011;6152;48.728;9.256;2024-03-17T03:21:31;15.52;;;11.90;;
12177;SDS011;6152;48.728;9.256;2024-03-17T03:23:57;15.23;;;11.60;;
12177;SDS011;6152;48.728;9.256;2024-03-17T03:26:23;15.82;;;11.93;;
12177;SDS011;6152;48.728;9.256;2024-03-17T03:28:49;13.88;;;11.23;;
12177;SDS011;6152;48.728;9.256;2024-03-17T03:31:16;15.43;;;11.50;;
12177;SDS011;6152;48.728;9.256;2024-03-17T03:33:42;13.38;;;11.20;;
12177;SDS011;6152;48.728;9.256;2024-03-17T03:36:09;14.85;;;11.07;;
12177;SDS011;6152;48.728;9.256;2024-03-17T03:38:37;16.00;;;11.77;;
12177;SDS011;6152;48.728;9.256;2024-03-17T03:41:09;15.35;;;11.93;;
12177;SDS011;6152;48.728;9.256;2024-03-17T03:43:38;15.38;;;11.43;;
12177;SDS011;6152;48.728;9.256;2024-03-17T03:46:04;15.95;;;12.35;;
12177;SDS011;6152;48.728;9.256;2024-03-17T03:48:31;13.30;;;11.20;;
12177;SDS011;6152;48.728;9.256;2024-03-17T03:50:59;14.07;;;11.13;;
12177;SDS011;6152;48.728;9.256;2024-03-17T03:53:32;15.88;;;11.20;;
12177;SDS011;6152;48.728;9.256;2024-03-17T03:55:59;16.08;;;11.02;;
12177;SDS011;6152;48.728;9.256;2024-03-17T03:58:31;13.25;;;10.68;;
12177;SDS011;6152;48.728;9.256;2024-03-17T04:01:00;15.02;;;10.55;;
12177;SDS011;6152;48.728;9.256;2024-03-17T04:03:29;16.00;;;11.43;;
12177;SDS011;6152;48.728;9.256;2024-03-17T04:06:09;16.92;;;11.52;;
12177;SDS011;6152;48.728;9.256;2024-03-17T04:08:36;13.23;;;10.40;;
12177;SDS011;6152;48.728;9.256;2024-03-17T04:11:05;16.23;;;10.88;;
12177;SDS011;6152;48.728;9.256;2024-03-17T04:13:32;14.77;;;10.90;;
12177;SDS011;6152;48.728;9.256;2024-03-17T04:15:59;14.23;;;9.95;;
12177;SDS011;6152;48.728;9.256;2024-03-17T04:18:26;13.23;;;10.68;;
12177;SDS011;6152;48.728;9.256;2024-03-17T04:20:56;13.48;;;10.70;;
12177;SDS011;6152;48.728;9.256;2024-03-17T04:23:23;14.60;;;10.70;;
12177;SDS011;6152;48.728;9.256;2024-03-17T04:25:52;14.75;;;10.52;;
12177;SDS011;6152;48.728;9.256;2024-03-17T04:28:18;13.35;;;10.00;;
12177;SDS011;6152;48.728;9.256;2024-03-17T04:30:45;14.23;;;10.60;;
12177;SDS011;6152;48.728;9.256;2024-03-17T04:33:11;13.40;;;10.45;;
12177;SDS011;6152;48.728;9.256;2024-03-17T04:35:38;13.27;;;9.98;;
12177;SDS011;6152;48.728;9.256;2024-03-17T04:38:04;13.90;;;10.00;;
12177;SDS011;6152;48.728;9.256;2024-03-17T04:40:31;14.07;;;9.85;;
12177;SDS011;6152;48.728;9.256;2024-03-17T04:42:58;13.35;;;10.18;;
12177;SDS011;6152;48.728;9.256;2024-03-17T04:45:24;13.15;;;9.25;;
12177;SDS011;6152;48.728;9.256;2024-03-17T04:47:51;11.80;;;9.73;;
12177;SDS011;6152;48.728;9.256;2024-03-17T04:50:17;11.35;;;9.07;;
12177;SDS011;6152;48.728;9.256;2024-03-17T04:52:43;14.05;;;9.38;;
12177;SDS011;6152;48.728;9.256;2024-03-17T04:55:10;13.05;;;9.15;;
12177;SDS011;6152;48.728;9.256;2024-03-17T04:57:36;16.45;;;9.48;;
12177;SDS011;6152;48.728;9.256;2024-03-17T05:00:02;11.18;;;8.50;;
12177;SDS011;6152;48.728;9.256;2024-03-17T05:02:32;12.30;;;9.27;;
12177;SDS011;6152;48.728;9.256;2024-03-17T05:04:58;11.70;;;9.30;;
12177;SDS011;6152;48.728;9.256;2024-03-17T05:07:24;12.20;;;8.85;;
12177;SDS011;6152;48.728;9.256;2024-03-17T05:09:50;12.73;;;8.27;;
12177;SDS011;6152;48.728;9.256;2024-03-17T05:12:16;12.25;;;8.52;;
12177;SDS011;6152;48.728;9.256;2024-03-17T05:14:42;12.57;;;9.10;;
12177;SDS011;6152;48.728;9.256;2024-03-17T05:17:09;11.05;;;8.70;;
12177;SDS011;6152;48.728;9.256;2024-03-17T05:19:35;12.80;;;9.60;;
12177;SDS011;6152;48.728;9.256;2024-03-17T05:22:01;11.05;;;8.75;;
12177;SDS011;6152;48.728;9.256;2024-03-17T05:24:27;11.45;;;9.43;;
12177;SDS011;6152;48.728;9.256;2024-03-17T05:26:53;11.55;;;7.95;;
12177;SDS011;6152;48.728;9.256;2024-03-17T05:29:19;12.15;;;8.02;;
12177;SDS011;6152;48.728;9.256;2024-03-17T05:31:45;11.02;;;8.38;;
12177;SDS011;6152;48.728;9.256;2024-03-17T05:34:12;11.75;;;8.40;;
12177;SDS011;6152;48.728;9.256;2024-03-17T05:36:38;10.93;;;7.97;;
12177;SDS011;6152;48.728;9.256;2024-03-17T05:39:04;11.80;;;8.32;;
12177;SDS011;6152;48.728;9.256;2024-03-17T05:41:30;10.43;;;8.00;;
12177;SDS011;6152;48.728;9.256;2024-03-17T05:43:56;9.90;;;7.85;;
12177;SDS011;6152;48.728;9.256;2024-03-17T05:46:23;11.15;;;8.48;;
12177;SDS011;6152;48.728;9.256;2024-03-17T05:48:53;9.65;;;7.95;;
12177;SDS011;6152;48.728;9.256;2024-03-17T05:51:19;12.80;;;8.05;;
12177;SDS011;6152;48.728;9.256;2024-03-17T05:53:46;10.75;;;8.25;;
12177;SDS011;6152;48.728;9.256;2024-03-17T05:56:12;11.18;;;8.13;;
12177;SDS011;6152;48.728;9.256;2024-03-17T05:58:40;15.35;;;8.55;;
12177;SDS011;6152;48.728;9.256;2024-03-17T06:01:07;10.88;;;8.27;;
12177;SDS011;6152;48.728;9.256;2024-03-17T06:03:36;12.88;;;8.80;;
12177;SDS011;6152;48.728;9.256;2024-03-17T06:06:03;11.93;;;8.63;;
12177;SDS011;6152;48.728;9.256;2024-03-17T06:08:32;11.43;;;8.95;;
12177;SDS011;6152;48.728;9.256;2024-03-17T06:10:58;13.82;;;9.55;;
12177;SDS011;6152;48.728;9.256;2024-03-17T06:13:27;10.35;;;7.88;;
12177;SDS011;6152;48.728;9.256;2024-03-17T06:15:54;13.23;;;8.98;;
12177;SDS011;6152;48.728;9.256;2024-03-17T06:18:22;9.77;;;8.35;;
12177;SDS011;6152;48.728;9.256;2024-03-17T06:20:48;10.38;;;7.45;;
12177;SDS011;6152;48.728;9.256;2024-03-17T06:23:15;12.00;;;8.40;;
12177;SDS011;6152;48.728;9.256;2024-03-17T06:25:42;11.63;;;7.95;;
12177;SDS011;6152;48.728;9.256;2024-03-17T06:28:10;11.02;;;7.88;;
12177;SDS011;6152;48.728;9.256;2024-03-17T06:30:41;10.07;;;7.28;;
12177;SDS011;6152;48.728;9.256;2024-03-17T06:33:10;10.65;;;7.85;;
12177;SDS011;6152;48.728;9.256;2024-03-17T06:35:37;10.63;;;8.35;;
12177;SDS011;6152;48.728;9.256;2024-03-17T06:38:04;10.65;;;8.00;;
12177;SDS011;6152;48.728;9.256;2024-03-17T06:40:34;11.18;;;8.52;;
12177;SDS011;6152;48.728;9.256;2024-03-17T06:43:01;11.57;;;8.52;;
12177;SDS011;6152;48.728;9.256;2024-03-17T06:45:27;10.18;;;7.35;;
12177;SDS011;6152;48.728;9.256;2024-03-17T06:47:53;11.57;;;7.60;;
12177;SDS011;6152;48.728;9.256;2024-03-17T06:50:20;10.35;;;7.18;;
12177;SDS011;6152;48.728;9.256;2024-03-17T06:52:46;10.10;;;7.57;;
12177;SDS011;6152;48.728;9.256;2024-03-17T06:55:13;9.90;;;7.20;;
12177;SDS011;6152;48.728;9.256;2024-03-17T06:57:42;10.90;;;6.93;;
12177;SDS011;6152;48.728;9.256;2024-03-17T07:00:12;11.07;;;7.38;;
12177;SDS011;6152;48.728;9.256;2024-03-17T07:02:44;8.80;;;7.07;;
12177;SDS011;6152;48.728;9.256;2024-03-17T07:05:14;10.63;;;6.80;;
12177;SDS011;6152;48.728;9.256;2024-03-17T07:07:41;12.32;;;7.30;;
12177;SDS011;6152;48.728;9.256;2024-03-17T07:10:10;9.77;;;7.35;;
12177;SDS011;6152;48.728;9.256;2024-03-17T07:12:37;9.73;;;6.72;;
12177;SDS011;6152;48.728;9.256;2024-03-17T07:15:04;8.52;;;7.22;;
12177;SDS011;6152;48.728;9.256;2024-03-17T07:17:31;9.02;;;7.10;;
12177;SDS011;6152;48.728;9.256;2024-03-17T07:19:58;10.30;;;7.10;;
12177;SDS011;6152;48.728;9.256;2024-03-17T07:22:24;8.50;;;6.32;;
12177;SDS011;6152;48.728;9.256;2024-03-17T07:24:51;7.60;;;6.03;;
12177;SDS011;6152;48.728;9.256;2024-03-17T07:27:25;9.10;;;6.35;;
12177;SDS011;6152;48.728;9.256;2024-03-17T07:29:54;8.38;;;6.53;;
12177;SDS011;6152;48.728;9.256;2024-03-17T07:32:20;7.30;;;6.00;;
12177;SDS011;6152;48.728;9.256;2024-03-17T07:34:48;8.90;;;6.65;;
12177;SDS011;6152;48.728;9.256;2024-03-17T07:37:17;6.22;;;5.63;;
12177;SDS011;6152;48.728;9.256;2024-03-17T07:39:43;7.93;;;5.90;;
12177;SDS011;6152;48.728;9.256;2024-03-17T07:42:09;6.53;;;5.80;;
12177;SDS011;6152;48.728;9.256;2024-03-17T07:44:38;7.80;;;5.80;;
12177;SDS011;6152;48.728;9.256;2024-03-17T07:47:04;7.38;;;5.78;;
12177;SDS011;6152;48.728;9.256;2024-03-17T07:49:30;6.88;;;5.53;;
12177;SDS011;6152;48.728;9.256;2024-03-17T07:51:57;7.07;;;5.60;;
12177;SDS011;6152;48.728;9.256;2024-03-17T07:54:24;5.70;;;5.07;;
12177;SDS011;6152;48.728;9.256;2024-03-17T07:56:51;6.57;;;5.20;;
12177;SDS011;6152;48.728;9.256;2024-03-17T07:59:17;6.20;;;5.22;;
12177;SDS011;6152;48.728;9.256;2024-03-17T08:01:44;5.60;;;4.85;;
12177;SDS011;6152;48.728;9.256;2024-03-17T08:04:10;5.20;;;4.68;;
12177;SDS011;6152;48.728;9.256;2024-03-17T08:06:40;6.22;;;4.55;;
12177;SDS011;6152;48.728;9.256;2024-03-17T08:09:10;7.68;;;4.80;;
12177;SDS011;6152;48.728;9.256;2024-03-17T08:11:37;4.70;;;4.30;;
12177;SDS011;6152;48.728;9.256;2024-03-17T08:14:04;6.15;;;4.57;;
12177;SDS011;6152;48.728;9.256;2024-03-17T08:16:30;5.68;;;4.75;;
12177;SDS011;6152;48.728;9.256;2024-03-17T08:18:57;7.07;;;3.70;;
12177;SDS011;6152;48.728;9.256;2024-03-17T08:21:23;5.10;;;3.67;;
12177;SDS011;6152;48.728;9.256;2024-03-17T08:23:54;5.95;;;3.67;;
12177;SDS011;6152;48.728;9.256;2024-03-17T08:26:20;5.72;;;4.25;;
12177;SDS011;6152;48.728;9.256;2024-03-17T08:28:46;4.97;;;3.90;;
12177;SDS011;6152;48.728;9.256;2024-03-17T08:31:12;5.65;;;4.53;;
12177;SDS011;6152;48.728;9.256;2024-03-17T08:33:40;6.50;;;4.07;;
12177;SDS011;6152;48.728;9.256;2024-03-17T08:36:07;5.93;;;4.65;;
12177;SDS011;6152;48.728;9.256;2024-03-17T08:38:34;11.32;;;5.03;;
12177;SDS011;6152;48.728;9.256;2024-03-17T08:41:04;7.25;;;5.40;;
12177;SDS011;6152;48.728;9.256;2024-03-17T08:43:35;14.30;;;4.90;;
12177;SDS011;6152;48.728;9.256;2024-03-17T08:46:05;6.97;;;4.80;;
12177;SDS011;6152;48.728;9.256;2024-03-17T08:48:33;14.68;;;9.75;;
12177;SDS011;6152;48.728;9.256;2024-03-17T08:51:01;23.05;;;11.90;;
12177;SDS011;6152;48.728;9.256;2024-03-17T08:53:28;34.17;;;17.33;;
12177;SDS011;6152;48.728;9.256;2024-03-17T08:55:55;27.23;;;17.25;;
12177;SDS011;6152;48.728;9.256;2024-03-17T08:58:22;26.40;;;16.40;;
12177;SDS011;6152;48.728;9.256;2024-03-17T09:00:49;15.48;;;10.65;;
12177;SDS011;6152;48.728;9.256;2024-03-17T09:03:16;9.90;;;6.40;;
12177;SDS011;6152;48.728;9.256;2024-03-17T09:05:43;8.60;;;4.97;;
12177;SDS011;6152;48.728;9.256;2024-03-17T09:08:17;3.80;;;3.40;;
12177;SDS011;6152;48.728;9.256;2024-03-17T09:10:45;3.90;;;3.03;;
12177;SDS011;6152;48.728;9.256;2024-03-17T09:13:16;3.72;;;3.15;;
12177;SDS011;6152;48.728;9.256;2024-03-17T09:15:50;4.00;;;3.58;;
12177;SDS011;6152;48.728;9.256;2024-03-17T09:18:17;3.17;;;2.80;;
12177;SDS011;6152;48.728;9.256;2024-03-17T09:20:44;3.08;;;2.83;;
12177;SDS011;6152;48.728;9.256;2024-03-17T09:23:11;3.10;;;2.78;;
12177;SDS011;6152;48.728;9.256;2024-03-17T09:25:37;3.05;;;2.75;;
12177;SDS011;6152;48.728;9.256;2024-03-17T09:28:03;4.10;;;2.75;;
12177;SDS011;6152;48.728;9.256;2024-03-17T09:30:30;4.38;;;2.80;;
12177;SDS011;6152;48.728;9.256;2024-03-17T09:32:56;2.85;;;2.63;;
12177;SDS011;6152;48.728;9.256;2024-03-17T09:35:22;3.33;;;2.85;;
12177;SDS011;6152;48.728;9.256;2024-03-17T09:37:48;4.03;;;2.63;;
12177;SDS011;6152;48.728;9.256;2024-03-17T09:40:14;2.05;;;1.85;;
12177;SDS011;6152;48.728;9.256;2024-03-17T09:42:41;4.30;;;2.10;;
12177;SDS011;6152;48.728;9.256;2024-03-17T09:45:10;3.53;;;2.40;;
12177;SDS011;6152;48.728;9.256;2024-03-17T09:47:37;2.63;;;2.42;;
12177;SDS011;6152;48.728;9.256;2024-03-17T09:50:04;6.28;;;5.07;;
12177;SDS011;6152;48.728;9.256;2024-03-17T09:52:37;3.00;;;2.67;;
12177;SDS011;6152;48.728;9.256;2024-03-17T09:57:45;2.00;;;1.80;;
12177;SDS011;6152;48.728;9.256;2024-03-17T10:00:13;3.45;;;2.28;;
12177;SDS011;6152;48.728;9.256;2024-03-17T10:02:43;2.10;;;1.90;;
12177;SDS011;6152;48.728;9.256;2024-03-17T10:07:46;3.42;;;2.10;;
12177;SDS011;6152;48.728;9.256;2024-03-17T10:10:13;2.25;;;1.95;;
12177;SDS011;6152;48.728;9.256;2024-03-17T10:12:41;2.47;;;2.28;;
12177;SDS011;6152;48.728;9.256;2024-03-17T10:15:10;2.33;;;2.13;;
12177;SDS011;6152;48.728;9.256;2024-03-17T10:17:39;2.55;;;2.13;;
12177;SDS011;6152;48.728;9.256;2024-03-17T10:23:04;2.10;;;2.00;;
12177;SDS011;6152;48.728;9.256;2024-03-17T10:25:33;2.38;;;2.17;;
12177;SDS011;6152;48.728;9.256;2024-03-17T10:28:04;2.53;;;2.13;;
12177;SDS011;6152;48.728;9.256;2024-03-17T10:30:36;2.35;;;1.80;;
12177;SDS011;6152;48.728;9.256;2024-03-17T10:33:04;2.10;;;1.67;;
12177;SDS011;6152;48.728;9.256;2024-03-17T10:35:37;2.17;;;2.00;;
12177;SDS011;6152;48.728;9.256;2024-03-17T10:38:05;1.92;;;1.70;;
12177;SDS011;6152;48.728;9.256;2024-03-17T10:40:33;2.22;;;2.00;;
12177;SDS011;6152;48.728;9.256;2024-03-17T10:43:02;1.80;;;1.67;;
12177;SDS011;6152;48.728;9.256;2024-03-17T10:45:31;2.17;;;1.80;;
12177;SDS011;6152;48.728;9.256;2024-03-17T10:48:03;2.13;;;1.80;;
12177;SDS011;6152;48.728;9.256;2024-03-17T10:50:34;2.25;;;1.98;;
12177;SDS011;6152;48.728;9.256;2024-03-17T10:53:03;2.13;;;1.70;;
12177;SDS011;6152;48.728;9.256;2024-03-17T10:55:37;3.08;;;1.80;;
12177;SDS011;6152;48.728;9.256;2024-03-17T10:58:21;1.75;;;1.65;;
12177;SDS011;6152;48.728;9.256;2024-03-17T11:00:56;3.80;;;1.70;;
12177;SDS011;6152;48.728;9.256;2024-03-17T11:03:22;1.42;;;1.30;;
12177;SDS011;6152;48.728;9.256;2024-03-17T11:05:49;1.45;;;1.35;;
12177;SDS011;6152;48.728;9.256;2024-03-17T11:08:17;1.60;;;1.50;;
12177;SDS011;6152;48.728;9.256;2024-03-17T11:10:51;1.67;;;1.58;;
12177;SDS011;6152;48.728;9.256;2024-03-17T11:13:26;1.85;;;1.50;;
12177;SDS011;6152;48.728;9.256;2024-03-17T11:15:54;1.88;;;1.67;;
12177;SDS011;6152;48.728;9.256;2024-03-17T11:21:06;1.67;;;1.20;;
12177;SDS011;6152;48.728;9.256;2024-03-17T11:23:46;2.20;;;1.65;;
12177;SDS011;6152;48.728;9.256;2024-03-17T11:26:33;1.85;;;1.70;;
12177;SDS011;6152;48.728;9.256;2024-03-17T11:29:03;2.17;;;1.58;;
12177;SDS011;6152;48.728;9.256;2024-03-17T11:36:55;2.63;;;1.73;;
12177;SDS011;6152;48.728;9.256;2024-03-17T11:42:15;2.17;;;1.83;;
12177;SDS011;6152;48.728;9.256;2024-03-17T11:45:03;2.65;;;1.70;;
12177;SDS011;6152;48.728;9.256;2024-03-17T11:47:38;1.88;;;1.60;;
12177;SDS011;6152;48.728;9.256;2024-03-17T11:50:06;1.50;;;1.40;;
12177;SDS011;6152;48.728;9.256;2024-03-17T11:52:35;2.13;;;2.00;;
12177;SDS011;6152;48.728;9.256;2024-03-17T11:55:02;2.45;;;1.77;;
12177;SDS011;6152;48.728;9.256;2024-03-17T11:57:28;2.10;;;1.40;;
12177;SDS011;6152;48.728;9.256;2024-03-17T11:59:55;1.65;;;1.50;;
12177;SDS011;6152;48.728;9.256;2024-03-17T12:02:23;3.92;;;1.73;;
12177;SDS011;6152;48.728;9.256;2024-03-17T12:04:53;1.55;;;1.20;;
12177;SDS011;6152;48.728;9.256;2024-03-17T12:07:24;2.97;;;1.67;;
12177;SDS011;6152;48.728;9.256;2024-03-17T12:09:52;2.17;;;1.70;;
12177;SDS011;6152;48.728;9.256;2024-03-17T12:12:20;2.13;;;1.45;;
12177;SDS011;6152;48.728;9.256;2024-03-17T12:14:59;2.50;;;1.60;;
12177;SDS011;6152;48.728;9.256;2024-03-17T12:17:27;2.90;;;1.48;;
12177;SDS011;6152;48.728;9.256;2024-03-17T12:19:54;2.05;;;1.52;;
12177;SDS011;6152;48.728;9.256;2024-03-17T12:22:25;1.75;;;1.23;;
12177;SDS011;6152;48.728;9.256;2024-03-17T12:24:53;2.60;;;1.50;;
12177;SDS011;6152;48.728;9.256;2024-03-17T12:27:21;1.77;;;1.17;;
12177;SDS011;6152;48.728;9.256;2024-03-17T12:29:50;1.90;;;1.70;;
12177;SDS011;6152;48.728;9.256;2024-03-17T12:34:50;1.35;;;1.20;;
12177;SDS011;6152;48.728;9.256;2024-03-17T12:39:48;1.50;;;1.00;;
12177;SDS011;6152;48.728;9.256;2024-03-17T12:42:15;1.35;;;1.25;;
12177;SDS011;6152;48.728;9.256;2024-03-17T12:47:19;2.17;;;1.50;;
12177;SDS011;6152;48.728;9.256;2024-03-17T12:49:50;3.47;;;1.67;;
12177;SDS011;6152;48.728;9.256;2024-03-17T12:52:24;1.42;;;1.33;;
12177;SDS011;6152;48.728;9.256;2024-03-17T12:57:42;2.42;;;1.17;;
12177;SDS011;6152;48.728;9.256;2024-03-17T13:00:27;3.08;;;1.50;;
12177;SDS011;6152;48.728;9.256;2024-03-17T13:02:57;1.73;;;1.60;;
12177;SDS011;6152;48.728;9.256;2024-03-17T13:05:23;3.17;;;2.08;;
12177;SDS011;6152;48.728;9.256;2024-03-17T13:07:50;2.10;;;1.70;;
12177;SDS011;6152;48.728;9.256;2024-03-17T13:10:19;1.90;;;1.38;;
12177;SDS011;6152;48.728;9.256;2024-03-17T13:12:46;1.48;;;1.38;;
12177;SDS011;6152;48.728;9.256;2024-03-17T13:15:16;1.33;;;1.20;;
12177;SDS011;6152;48.728;9.256;2024-03-17T13:17:46;1.17;;;1.08;;
12177;SDS011;6152;48.728;9.256;2024-03-17T13:20:13;2.10;;;1.10;;
12177;SDS011;6152;48.728;9.256;2024-03-17T13:22:40;1.38;;;1.27;;
12177;SDS011;6152;48.728;9.256;2024-03-17T13:25:17;3.33;;;1.23;;
12177;SDS011;6152;48.728;9.256;2024-03-17T13:27:46;2.88;;;0.95;;
12177;SDS011;6152;48.728;9.256;2024-03-17T13:30:16;2.05;;;0.90;;
12177;SDS011;6152;48.728;9.256;2024-03-17T13:32:44;0.85;;;0.60;;
12177;SDS011;6152;48.728;9.256;2024-03-17T13:35:20;2.72;;;0.70;;
12177;SDS011;6152;48.728;9.256;2024-03-17T13:37:48;0.65;;;0.45;;
12177;SDS011;6152;48.728;9.256;2024-03-17T13:40:15;1.27;;;0.70;;
12177;SDS011;6152;48.728;9.256;2024-03-17T13:42:47;1.08;;;0.60;;
12177;SDS011;6152;48.728;9.256;2024-03-17T13:45:14;0.63;;;0.52;;
12177;SDS011;6152;48.728;9.256;2024-03-17T13:47:43;1.55;;;0.57;;
12177;SDS011;6152;48.728;9.256;2024-03-17T13:50:13;2.42;;;1.38;;
12177;SDS011;6152;48.728;9.256;2024-03-17T13:52:40;1.83;;;0.90;;
12177;SDS011;6152;48.728;9.256;2024-03-17T13:55:12;1.20;;;0.68;;
12177;SDS011;6152;48.728;9.256;2024-03-17T13:57:40;1.35;;;0.60;;
12177;SDS011;6152;48.728;9.256;2024-03-17T14:00:10;1.55;;;0.68;;
12177;SDS011;6152;48.728;9.256;2024-03-17T14:02:41;1.30;;;0.73;;
12177;SDS011;6152;48.728;9.256;2024-03-17T14:05:20;2.15;;;0.80;;
12177;SDS011;6152;48.728;9.256;2024-03-17T14:07:47;1.13;;;0.45;;
12177;SDS011;6152;48.728;9.256;2024-03-17T14:10:18;2.05;;;0.82;;
12177;SDS011;6152;48.728;9.256;2024-03-17T14:12:44;2.08;;;0.70;;
12177;SDS011;6152;48.728;9.256;2024-03-17T14:15:11;1.17;;;0.75;;
12177;SDS011;6152;48.728;9.256;2024-03-17T14:17:46;2.40;;;0.77;;
12177;SDS011;6152;48.728;9.256;2024-03-17T14:20:14;2.42;;;1.08;;
12177;SDS011;6152;48.728;9.256;2024-03-17T14:22:43;2.53;;;1.63;;
12177;SDS011;6152;48.728;9.256;2024-03-17T14:25:18;1.60;;;1.50;;
12177;SDS011;6152;48.728;9.256;2024-03-17T14:27:46;1.70;;;1.60;;
12177;SDS011;6152;48.728;9.256;2024-03-17T14:30:14;4.68;;;2.10;;
12177;SDS011;6152;48.728;9.256;2024-03-17T14:32:42;2.15;;;1.95;;
12177;SDS011;6152;48.728;9.256;2024-03-17T14:35:12;2.55;;;1.60;;
12177;SDS011;6152;48.728;9.256;2024-03-17T14:37:40;1.95;;;1.60;;
12177;SDS011;6152;48.728;9.256;2024-03-17T14:40:08;2.45;;;2.08;;
12177;SDS011;6152;48.728;9.256;2024-03-17T14:42:42;2.20;;;1.55;;
12177;SDS011;6152;48.728;9.256;2024-03-17T14:45:08;1.90;;;1.35;;
12177;SDS011;6152;48.728;9.256;2024-03-17T14:47:35;2.55;;;1.15;;
12177;SDS011;6152;48.728;9.256;2024-03-17T14:50:01;1.55;;;0.82;;
12177;SDS011;6152;48.728;9.256;2024-03-17T14:52:28;1.30;;;1.20;;
12177;SDS011;6152;48.728;9.256;2024-03-17T14:54:54;1.48;;;1.05;;
12177;SDS011;6152;48.728;9.256;2024-03-17T14:57:21;1.70;;;1.20;;
12177;SDS011;6152;48.728;9.256;2024-03-17T14:59:47;2.47;;;1.33;;
12177;SDS011;6152;48.728;9.256;2024-03-17T15:02:14;1.35;;;1.20;;
12177;SDS011;6152;48.728;9.256;2024-03-17T15:04:40;1.00;;;1.00;;
12177;SDS011;6152;48.728;9.256;2024-03-17T15:07:06;1.20;;;1.10;;
12177;SDS011;6152;48.728;9.256;2024-03-17T15:09:34;1.85;;;0.98;;
12177;SDS011;6152;48.728;9.256;2024-03-17T15:12:00;2.53;;;1.20;;
12177;SDS011;6152;48.728;9.256;2024-03-17T15:14:32;2.97;;;1.10;;
12177;SDS011;6152;48.728;9.256;2024-03-17T15:16:58;2.38;;;1.20;;
12177;SDS011;6152;48.728;9.256;2024-03-17T15:19:24;1.17;;;1.08;;
12177;SDS011;6152;48.728;9.256;2024-03-17T15:21:50;1.83;;;1.30;;
12177;SDS011;6152;48.728;9.256;2024-03-17T15:24:17;1.45;;;1.10;;
12177;SDS011;6152;48.728;9.256;2024-03-17T15:26:43;4.75;;;2.15;;